sensor_id;sensor_type;location;lat;lon;timestamp;temperature;humidity
6696;DHT22;3385;48.928;10.330;2023-01-15T00:00:49;7.60;99.90
6696;DHT22;3385;48.928;10.330;2023-01-15T00:03:17;10.40;99.90
6696;DHT22;3385;48.928;10.330;2023-01-15T00:05:44;7.70;99.90
6696;DHT22;3385;48.928;10.330;2023-01-15T00:08:10;7.70;99.90
6696;DHT22;3385;48.928;10.330;2023-01-15T00:10:36;7.60;99.90
6696;DHT22;3385;48.928;10.330;2023-01-15T00:13:01;7.60;99.90
6696;DHT22;3385;48.928;10.330;2023-01-15T00:15:27;7.60;99.90
6696;DHT22;3385;48.928;10.330;2023-01-15T00:17:53;7.70;99.90
6696;DHT22;3385;48.928;10.330;2023-01-15T00:20:19;10.80;99.90
6696;DHT22;3385;48.928;10.330;2023-01-15T00:22:44;7.70;99.90
6696;DHT22;3385;48.928;10.330;2023-01-15T00:25:10;7.70;99.90
6696;DHT22;3385;48.928;10.330;2023-01-15T00:27:54;7.70;99.90
6696;DHT22;3385;48.928;10.330;2023-01-15T00:30:20;7.60;99.90
6696;DHT22;3385;48.928;10.330;2023-01-15T00:32:46;7.70;99.90
6696;DHT22;3385;48.928;10.330;2023-01-15T00:35:17;7.60;99.90
6696;DHT22;3385;48.928;10.330;2023-01-15T00:37:43;7.50;99.90
6696;DHT22;3385;48.928;10.330;2023-01-15T00:40:10;7.70;99.90
6696;DHT22;3385;48.928;10.330;2023-01-15T00:42:36;7.60;99.90
6696;DHT22;3385;48.928;10.330;2023-01-15T00:45:02;7.60;99.90
6696;DHT22;3385;48.928;10.330;2023-01-15T00:47:38;7.70;99.90
6696;DHT22;3385;48.928;10.330;2023-01-15T00:50:06;7.70;99.90
6696;DHT22;3385;48.928;10.330;2023-01-15T00:52:32;7.80;99.90
6696;DHT22;3385;48.928;10.330;2023-01-15T00:54:58;7.90;99.90
6696;DHT22;3385;48.928;10.330;2023-01-15T00:57:24;7.80;99.90
6696;DHT22;3385;48.928;10.330;2023-01-15T00:59:50;7.90;99.90
6696;DHT22;3385;48.928;10.330;2023-01-15T01:02:16;7.90;99.90
6696;DHT22;3385;48.928;10.330;2023-01-15T01:04:42;8.00;99.90
6696;DHT22;3385;48.928;10.330;2023-01-15T01:07:08;8.00;99.90
6696;DHT22;3385;48.928;10.330;2023-01-15T01:09:34;8.00;99.90
6696;DHT22;3385;48.928;10.330;2023-01-15T01:12:00;7.10;99.90
6696;DHT22;3385;48.928;10.330;2023-01-15T01:14:27;7.90;99.90
6696;DHT22;3385;48.928;10.330;2023-01-15T01:16:53;8.00;99.90
6696;DHT22;3385;48.928;10.330;2023-01-15T01:19:21;7.90;99.90
6696;DHT22;3385;48.928;10.330;2023-01-15T01:21:48;8.00;99.90
6696;DHT22;3385;48.928;10.330;2023-01-15T01:24:19;7.80;99.90
6696;DHT22;3385;48.928;10.330;2023-01-15T01:26:46;8.10;99.90
6696;DHT22;3385;48.928;10.330;2023-01-15T01:29:13;8.00;99.90
6696;DHT22;3385;48.928;10.330;2023-01-15T01:31:39;8.00;99.90
6696;DHT22;3385;48.928;10.330;2023-01-15T01:34:05;8.00;99.90
6696;DHT22;3385;48.928;10.330;2023-01-15T01:36:34;8.00;99.90
6696;DHT22;3385;48.928;10.330;2023-01-15T01:39:01;8.30;99.90
6696;DHT22;3385;48.928;10.330;2023-01-15T01:41:29;8.10;99.90
6696;DHT22;3385;48.928;10.330;2023-01-15T01:44:04;6.90;99.90
6696;DHT22;3385;48.928;10.330;2023-01-15T01:46:34;8.20;99.90
6696;DHT22;3385;48.928;10.330;2023-01-15T01:49:10;8.10;99.90
6696;DHT22;3385;48.928;10.330;2023-01-15T01:51:44;8.00;99.90
6696;DHT22;3385;48.928;10.330;2023-01-15T01:54:12;8.00;99.90
6696;DHT22;3385;48.928;10.330;2023-01-15T01:56:39;8.00;99.90
6696;DHT22;3385;48.928;10.330;2023-01-15T01:59:06;7.90;99.90
6696;DHT22;3385;48.928;10.330;2023-01-15T02:01:32;7.90;99.90
6696;DHT22;3385;48.928;10.330;2023-01-15T02:03:59;7.60;99.90
6696;DHT22;3385;48.928;10.330;2023-01-15T02:06:26;7.80;99.90
6696;DHT22;3385;48.928;10.330;2023-01-15T02:08:52;7.80;99.90
6696;DHT22;3385;48.928;10.330;2023-01-15T02:11:20;7.80;99.90
6696;DHT22;3385;48.928;10.330;2023-01-15T02:14:15;7.80;99.90
6696;DHT22;3385;48.928;10.330;2023-01-15T02:16:41;8.00;99.90
6696;DHT22;3385;48.928;10.330;2023-01-15T02:19:15;8.10;99.90
6696;DHT22;3385;48.928;10.330;2023-01-15T02:27:21;8.00;99.90
6696;DHT22;3385;48.928;10.330;2023-01-15T02:32:53;7.90;99.90
6696;DHT22;3385;48.928;10.330;2023-01-15T02:38:02;8.40;99.90
6696;DHT22;3385;48.928;10.330;2023-01-15T02:40:30;8.30;99.90
6696;DHT22;3385;48.928;10.330;2023-01-15T02:42:58;8.10;99.90
6696;DHT22;3385;48.928;10.330;2023-01-15T02:45:35;8.50;99.90
6696;DHT22;3385;48.928;10.330;2023-01-15T02:48:05;8.50;99.90
6696;DHT22;3385;48.928;10.330;2023-01-15T02:50:41;8.80;99.90
6696;DHT22;3385;48.928;10.330;2023-01-15T02:53:11;8.90;99.90
6696;DHT22;3385;48.928;10.330;2023-01-15T02:55:42;9.00;99.90
6696;DHT22;3385;48.928;10.330;2023-01-15T02:58:12;9.00;99.90
6696;DHT22;3385;48.928;10.330;2023-01-15T03:00:42;9.00;99.90
6696;DHT22;3385;48.928;10.330;2023-01-15T03:03:45;9.10;99.90
6696;DHT22;3385;48.928;10.330;2023-01-15T03:06:48;9.30;99.90
6696;DHT22;3385;48.928;10.330;2023-01-15T03:09:05;9.20;99.90
6696;DHT22;3385;48.928;10.330;2023-01-15T03:11:34;9.40;99.90
6696;DHT22;3385;48.928;10.330;2023-01-15T03:14:18;9.40;99.90
6696;DHT22;3385;48.928;10.330;2023-01-15T03:22:25;9.50;99.90
6696;DHT22;3385;48.928;10.330;2023-01-15T03:28:01;9.40;99.90
6696;DHT22;3385;48.928;10.330;2023-01-15T03:30:28;9.40;99.90
6696;DHT22;3385;48.928;10.330;2023-01-15T03:32:53;9.30;99.90
6696;DHT22;3385;48.928;10.330;2023-01-15T03:38:04;9.10;99.90
6696;DHT22;3385;48.928;10.330;2023-01-15T03:40:31;8.80;99.90
6696;DHT22;3385;48.928;10.330;2023-01-15T03:43:04;8.70;99.90
6696;DHT22;3385;48.928;10.330;2023-01-15T03:45:54;8.60;99.90
6696;DHT22;3385;48.928;10.330;2023-01-15T03:48:33;8.80;99.90
6696;DHT22;3385;48.928;10.330;2023-01-15T03:51:08;8.30;99.90
6696;DHT22;3385;48.928;10.330;2023-01-15T03:53:41;8.10;99.90
6696;DHT22;3385;48.928;10.330;2023-01-15T03:56:23;8.30;99.90
6696;DHT22;3385;48.928;10.330;2023-01-15T03:59:06;8.40;99.90
6696;DHT22;3385;48.928;10.330;2023-01-15T04:01:39;8.00;99.90
6696;DHT22;3385;48.928;10.330;2023-01-15T04:04:06;8.40;99.90
6696;DHT22;3385;48.928;10.330;2023-01-15T04:06:35;8.00;99.90
6696;DHT22;3385;48.928;10.330;2023-01-15T04:09:07;8.30;99.90
6696;DHT22;3385;48.928;10.330;2023-01-15T04:11:33;8.30;99.90
6696;DHT22;3385;48.928;10.330;2023-01-15T04:13:59;8.30;99.90
6696;DHT22;3385;48.928;10.330;2023-01-15T04:16:28;8.30;99.90
6696;DHT22;3385;48.928;10.330;2023-01-15T04:18:54;8.30;99.90
6696;DHT22;3385;48.928;10.330;2023-01-15T04:21:20;8.00;99.90
6696;DHT22;3385;48.928;10.330;2023-01-15T04:23:46;8.30;99.90
6696;DHT22;3385;48.928;10.330;2023-01-15T04:26:12;8.30;99.90
6696;DHT22;3385;48.928;10.330;2023-01-15T04:28:39;8.10;99.90
6696;DHT22;3385;48.928;10.330;2023-01-15T04:31:05;8.00;99.90
6696;DHT22;3385;48.928;10.330;2023-01-15T04:33:31;8.10;99.90
6696;DHT22;3385;48.928;10.330;2023-01-15T04:36:01;8.20;99.90
6696;DHT22;3385;48.928;10.330;2023-01-15T04:38:27;8.20;99.90
6696;DHT22;3385;48.928;10.330;2023-01-15T04:40:53;7.90;99.90
6696;DHT22;3385;48.928;10.330;2023-01-15T04:43:37;8.30;99.90
6696;DHT22;3385;48.928;10.330;2023-01-15T04:46:23;8.50;99.90
6696;DHT22;3385;48.928;10.330;2023-01-15T04:48:49;8.10;99.90
6696;DHT22;3385;48.928;10.330;2023-01-15T04:51:15;7.90;99.90
6696;DHT22;3385;48.928;10.330;2023-01-15T04:53:40;8.20;99.90
6696;DHT22;3385;48.928;10.330;2023-01-15T04:56:06;8.20;99.90
6696;DHT22;3385;48.928;10.330;2023-01-15T04:58:33;8.10;99.90
6696;DHT22;3385;48.928;10.330;2023-01-15T05:00:59;8.10;99.90
6696;DHT22;3385;48.928;10.330;2023-01-15T05:03:29;8.10;99.90
6696;DHT22;3385;48.928;10.330;2023-01-15T05:06:00;8.20;99.90
6696;DHT22;3385;48.928;10.330;2023-01-15T05:08:26;8.00;99.90
6696;DHT22;3385;48.928;10.330;2023-01-15T05:10:52;8.20;99.90
6696;DHT22;3385;48.928;10.330;2023-01-15T05:13:17;8.40;99.90
6696;DHT22;3385;48.928;10.330;2023-01-15T05:15:43;8.30;99.90
6696;DHT22;3385;48.928;10.330;2023-01-15T05:18:11;8.80;99.90
6696;DHT22;3385;48.928;10.330;2023-01-15T05:20:40;8.40;99.90
6696;DHT22;3385;48.928;10.330;2023-01-15T05:23:06;8.40;99.90
6696;DHT22;3385;48.928;10.330;2023-01-15T05:25:34;8.10;99.90
6696;DHT22;3385;48.928;10.330;2023-01-15T05:28:00;8.60;99.90
6696;DHT22;3385;48.928;10.330;2023-01-15T05:30:26;8.50;99.90
6696;DHT22;3385;48.928;10.330;2023-01-15T05:32:52;8.60;99.90
6696;DHT22;3385;48.928;10.330;2023-01-15T05:35:17;8.80;99.90
6696;DHT22;3385;48.928;10.330;2023-01-15T05:37:43;8.80;99.90
6696;DHT22;3385;48.928;10.330;2023-01-15T05:40:09;8.70;99.90
6696;DHT22;3385;48.928;10.330;2023-01-15T05:42:35;8.80;99.90
6696;DHT22;3385;48.928;10.330;2023-01-15T05:45:01;8.90;99.90
6696;DHT22;3385;48.928;10.330;2023-01-15T05:47:26;8.70;99.90
6696;DHT22;3385;48.928;10.330;2023-01-15T05:49:52;9.10;99.90
6696;DHT22;3385;48.928;10.330;2023-01-15T05:52:18;9.10;99.90
6696;DHT22;3385;48.928;10.330;2023-01-15T05:54:44;9.00;99.90
6696;DHT22;3385;48.928;10.330;2023-01-15T05:57:11;8.80;99.90
6696;DHT22;3385;48.928;10.330;2023-01-15T05:59:38;8.60;99.90
6696;DHT22;3385;48.928;10.330;2023-01-15T06:02:04;9.30;99.90
6696;DHT22;3385;48.928;10.330;2023-01-15T06:04:30;9.10;99.90
6696;DHT22;3385;48.928;10.330;2023-01-15T06:06:56;8.90;99.90
6696;DHT22;3385;48.928;10.330;2023-01-15T06:09:23;9.10;99.90
6696;DHT22;3385;48.928;10.330;2023-01-15T06:11:50;9.10;99.90
6696;DHT22;3385;48.928;10.330;2023-01-15T06:14:16;9.20;99.90
6696;DHT22;3385;48.928;10.330;2023-01-15T06:16:42;9.10;99.90
6696;DHT22;3385;48.928;10.330;2023-01-15T06:19:08;8.80;99.90
6696;DHT22;3385;48.928;10.330;2023-01-15T06:21:35;9.40;99.90
6696;DHT22;3385;48.928;10.330;2023-01-15T06:24:01;9.20;99.90
6696;DHT22;3385;48.928;10.330;2023-01-15T06:26:27;9.10;99.90
6696;DHT22;3385;48.928;10.330;2023-01-15T06:28:53;9.10;99.90
6696;DHT22;3385;48.928;10.330;2023-01-15T06:31:20;9.10;99.90
6696;DHT22;3385;48.928;10.330;2023-01-15T06:33:46;9.00;99.90
6696;DHT22;3385;48.928;10.330;2023-01-15T06:36:15;9.10;99.90
6696;DHT22;3385;48.928;10.330;2023-01-15T06:38:41;8.80;99.90
6696;DHT22;3385;48.928;10.330;2023-01-15T06:41:14;8.70;99.90
6696;DHT22;3385;48.928;10.330;2023-01-15T06:43:58;8.50;99.90
6696;DHT22;3385;48.928;10.330;2023-01-15T06:46:46;8.30;99.90
6696;DHT22;3385;48.928;10.330;2023-01-15T06:49:31;8.20;99.90
6696;DHT22;3385;48.928;10.330;2023-01-15T06:51:57;8.10;99.90
6696;DHT22;3385;48.928;10.330;2023-01-15T06:54:23;8.00;99.90
6696;DHT22;3385;48.928;10.330;2023-01-15T06:56:48;7.70;99.90
6696;DHT22;3385;48.928;10.330;2023-01-15T06:59:14;7.60;99.90
6696;DHT22;3385;48.928;10.330;2023-01-15T07:01:40;7.40;99.90
6696;DHT22;3385;48.928;10.330;2023-01-15T07:04:06;7.30;99.90
6696;DHT22;3385;48.928;10.330;2023-01-15T07:06:31;7.30;99.90
6696;DHT22;3385;48.928;10.330;2023-01-15T07:08:57;7.10;99.90
6696;DHT22;3385;48.928;10.330;2023-01-15T07:11:23;7.00;99.90
6696;DHT22;3385;48.928;10.330;2023-01-15T07:13:49;7.00;99.90
6696;DHT22;3385;48.928;10.330;2023-01-15T07:16:14;7.00;99.90
6696;DHT22;3385;48.928;10.330;2023-01-15T07:18:54;6.90;99.90
6696;DHT22;3385;48.928;10.330;2023-01-15T07:21:20;6.80;99.90
6696;DHT22;3385;48.928;10.330;2023-01-15T07:23:47;6.80;99.90
6696;DHT22;3385;48.928;10.330;2023-01-15T07:26:13;6.90;99.90
6696;DHT22;3385;48.928;10.330;2023-01-15T07:28:38;6.80;99.90
6696;DHT22;3385;48.928;10.330;2023-01-15T07:31:04;6.80;99.90
6696;DHT22;3385;48.928;10.330;2023-01-15T07:33:30;6.40;99.90
6696;DHT22;3385;48.928;10.330;2023-01-15T07:35:56;6.80;99.90
6696;DHT22;3385;48.928;10.330;2023-01-15T07:38:22;6.60;99.90
6696;DHT22;3385;48.928;10.330;2023-01-15T07:40:48;6.70;99.90
6696;DHT22;3385;48.928;10.330;2023-01-15T07:43:34;6.70;99.90
6696;DHT22;3385;48.928;10.330;2023-01-15T07:46:18;6.60;99.90
6696;DHT22;3385;48.928;10.330;2023-01-15T07:49:02;6.50;99.90
6696;DHT22;3385;48.928;10.330;2023-01-15T07:51:48;6.90;99.90
6696;DHT22;3385;48.928;10.330;2023-01-15T07:54:14;6.50;99.90
6696;DHT22;3385;48.928;10.330;2023-01-15T07:56:40;6.20;99.90
6696;DHT22;3385;48.928;10.330;2023-01-15T07:59:06;6.30;99.90
6696;DHT22;3385;48.928;10.330;2023-01-15T08:01:31;6.50;99.90
6696;DHT22;3385;48.928;10.330;2023-01-15T08:03:57;6.10;99.90
6696;DHT22;3385;48.928;10.330;2023-01-15T08:06:23;6.00;99.90
6696;DHT22;3385;48.928;10.330;2023-01-15T08:08:48;5.90;99.90
6696;DHT22;3385;48.928;10.330;2023-01-15T08:11:14;5.70;99.90
6696;DHT22;3385;48.928;10.330;2023-01-15T08:14:08;5.70;99.90
6696;DHT22;3385;48.928;10.330;2023-01-15T08:16:54;5.60;99.90
6696;DHT22;3385;48.928;10.330;2023-01-15T08:19:19;5.10;99.90
6696;DHT22;3385;48.928;10.330;2023-01-15T08:21:45;5.50;99.90
6696;DHT22;3385;48.928;10.330;2023-01-15T08:24:12;5.40;99.90
6696;DHT22;3385;48.928;10.330;2023-01-15T08:26:38;5.20;99.90
6696;DHT22;3385;48.928;10.330;2023-01-15T08:29:04;5.50;99.90
6696;DHT22;3385;48.928;10.330;2023-01-15T08:31:29;5.30;99.90
6696;DHT22;3385;48.928;10.330;2023-01-15T08:33:55;5.20;99.90
6696;DHT22;3385;48.928;10.330;2023-01-15T08:36:21;5.00;99.90
6696;DHT22;3385;48.928;10.330;2023-01-15T08:38:50;4.90;99.90
6696;DHT22;3385;48.928;10.330;2023-01-15T08:41:15;4.90;99.90
6696;DHT22;3385;48.928;10.330;2023-01-15T08:43:41;2.20;99.90
6696;DHT22;3385;48.928;10.330;2023-01-15T08:46:08;4.70;99.90
6696;DHT22;3385;48.928;10.330;2023-01-15T08:48:34;4.80;99.90
6696;DHT22;3385;48.928;10.330;2023-01-15T08:51:04;5.10;99.90
6696;DHT22;3385;48.928;10.330;2023-01-15T08:53:31;4.60;99.90
6696;DHT22;3385;48.928;10.330;2023-01-15T08:55:57;4.60;99.90
6696;DHT22;3385;48.928;10.330;2023-01-15T08:58:23;4.50;99.90
6696;DHT22;3385;48.928;10.330;2023-01-15T09:00:49;4.60;99.90
6696;DHT22;3385;48.928;10.330;2023-01-15T09:03:14;4.20;99.90
6696;DHT22;3385;48.928;10.330;2023-01-15T09:05:42;4.80;99.90
6696;DHT22;3385;48.928;10.330;2023-01-15T09:08:07;4.40;99.90
6696;DHT22;3385;48.928;10.330;2023-01-15T09:10:33;4.60;99.90
6696;DHT22;3385;48.928;10.330;2023-01-15T09:13:00;4.60;99.90
6696;DHT22;3385;48.928;10.330;2023-01-15T09:15:30;4.50;99.90
6696;DHT22;3385;48.928;10.330;2023-01-15T09:17:57;4.40;99.90
6696;DHT22;3385;48.928;10.330;2023-01-15T09:20:23;4.40;99.90
6696;DHT22;3385;48.928;10.330;2023-01-15T09:22:49;5.10;99.90
6696;DHT22;3385;48.928;10.330;2023-01-15T09:25:15;4.60;99.90
6696;DHT22;3385;48.928;10.330;2023-01-15T09:27:43;4.40;99.90
6696;DHT22;3385;48.928;10.330;2023-01-15T09:30:15;4.50;99.90
6696;DHT22;3385;48.928;10.330;2023-01-15T09:32:48;4.80;99.90
6696;DHT22;3385;48.928;10.330;2023-01-15T09:35:14;4.50;99.90
6696;DHT22;3385;48.928;10.330;2023-01-15T09:37:40;4.40;99.90
6696;DHT22;3385;48.928;10.330;2023-01-15T09:40:06;4.40;99.90
6696;DHT22;3385;48.928;10.330;2023-01-15T09:42:51;4.60;99.90
6696;DHT22;3385;48.928;10.330;2023-01-15T09:45:25;4.60;99.90
6696;DHT22;3385;48.928;10.330;2023-01-15T09:53:36;5.00;99.90
6696;DHT22;3385;48.928;10.330;2023-01-15T09:56:04;4.60;99.90
6696;DHT22;3385;48.928;10.330;2023-01-15T09:58:39;4.40;99.90
6696;DHT22;3385;48.928;10.330;2023-01-15T10:01:05;4.40;99.90
6696;DHT22;3385;48.928;10.330;2023-01-15T10:03:56;4.20;99.90
6696;DHT22;3385;48.928;10.330;2023-01-15T10:06:32;4.40;99.90
6696;DHT22;3385;48.928;10.330;2023-01-15T10:09:21;1.90;99.90
6696;DHT22;3385;48.928;10.330;2023-01-15T10:11:57;4.40;99.90
6696;DHT22;3385;48.928;10.330;2023-01-15T10:17:28;4.40;99.90
6696;DHT22;3385;48.928;10.330;2023-01-15T10:19:57;4.50;99.90
6696;DHT22;3385;48.928;10.330;2023-01-15T10:22:38;4.10;99.90
6696;DHT22;3385;48.928;10.330;2023-01-15T10:25:14;4.10;99.90
6696;DHT22;3385;48.928;10.330;2023-01-15T10:27:45;4.50;99.90
6696;DHT22;3385;48.928;10.330;2023-01-15T10:30:32;4.30;99.90
6696;DHT22;3385;48.928;10.330;2023-01-15T10:36:24;4.20;99.90
6696;DHT22;3385;48.928;10.330;2023-01-15T10:39:32;4.00;99.90
6696;DHT22;3385;48.928;10.330;2023-01-15T10:46:59;5.10;99.90
6696;DHT22;3385;48.928;10.330;2023-01-15T10:49:29;4.10;99.90
6696;DHT22;3385;48.928;10.330;2023-01-15T10:54:49;2.50;99.90
6696;DHT22;3385;48.928;10.330;2023-01-15T11:00:05;4.10;99.90
6696;DHT22;3385;48.928;10.330;2023-01-15T11:02:59;4.10;99.90
6696;DHT22;3385;48.928;10.330;2023-01-15T11:05:28;4.20;99.90
6696;DHT22;3385;48.928;10.330;2023-01-15T11:07:55;4.20;99.90
6696;DHT22;3385;48.928;10.330;2023-01-15T11:10:22;3.80;99.90
6696;DHT22;3385;48.928;10.330;2023-01-15T11:13:01;3.80;99.90
6696;DHT22;3385;48.928;10.330;2023-01-15T11:15:53;4.10;99.90
6696;DHT22;3385;48.928;10.330;2023-01-15T11:18:43;4.00;99.90
6696;DHT22;3385;48.928;10.330;2023-01-15T11:21:28;3.80;99.90
6696;DHT22;3385;48.928;10.330;2023-01-15T11:23:56;3.90;99.90
6696;DHT22;3385;48.928;10.330;2023-01-15T11:26:30;3.80;99.90
6696;DHT22;3385;48.928;10.330;2023-01-15T11:28:59;3.70;99.90
6696;DHT22;3385;48.928;10.330;2023-01-15T11:31:36;3.70;99.90
6696;DHT22;3385;48.928;10.330;2023-01-15T11:34:05;3.50;99.90
6696;DHT22;3385;48.928;10.330;2023-01-15T11:36:32;3.40;99.90
6696;DHT22;3385;48.928;10.330;2023-01-15T11:38:58;3.60;99.90
6696;DHT22;3385;48.928;10.330;2023-01-15T11:41:31;3.40;99.90
6696;DHT22;3385;48.928;10.330;2023-01-15T11:44:17;3.30;99.90
6696;DHT22;3385;48.928;10.330;2023-01-15T11:47:03;3.50;99.90
6696;DHT22;3385;48.928;10.330;2023-01-15T11:49:54;3.50;99.90
6696;DHT22;3385;48.928;10.330;2023-01-15T11:52:45;3.30;99.90
6696;DHT22;3385;48.928;10.330;2023-01-15T11:55:14;3.20;99.90
6696;DHT22;3385;48.928;10.330;2023-01-15T11:57:43;3.30;99.90
6696;DHT22;3385;48.928;10.330;2023-01-15T12:00:24;3.30;99.90
6696;DHT22;3385;48.928;10.330;2023-01-15T12:02:54;3.30;99.90
6696;DHT22;3385;48.928;10.330;2023-01-15T12:05:28;2.90;99.90
6696;DHT22;3385;48.928;10.330;2023-01-15T12:08:02;3.10;99.90
6696;DHT22;3385;48.928;10.330;2023-01-15T12:11:09;3.20;99.90
6696;DHT22;3385;48.928;10.330;2023-01-15T12:13:46;3.00;99.90
6696;DHT22;3385;48.928;10.330;2023-01-15T12:18:53;3.10;99.90
6696;DHT22;3385;48.928;10.330;2023-01-15T12:24:44;3.20;99.90
6696;DHT22;3385;48.928;10.330;2023-01-15T12:30:20;3.00;99.90
6696;DHT22;3385;48.928;10.330;2023-01-15T12:35:59;2.90;99.90
6696;DHT22;3385;48.928;10.330;2023-01-15T12:41:37;2.90;99.90
6696;DHT22;3385;48.928;10.330;2023-01-15T12:44:40;1.90;99.90
6696;DHT22;3385;48.928;10.330;2023-01-15T13:01:49;2.70;99.90
6696;DHT22;3385;48.928;10.330;2023-01-15T13:04:29;2.50;99.90
6696;DHT22;3385;48.928;10.330;2023-01-15T13:12:26;2.40;99.90
6696;DHT22;3385;48.928;10.330;2023-01-15T13:14:52;2.30;99.90
6696;DHT22;3385;48.928;10.330;2023-01-15T13:20:26;2.40;99.90
6696;DHT22;3385;48.928;10.330;2023-01-15T13:23:17;2.50;99.90
6696;DHT22;3385;48.928;10.330;2023-01-15T13:31:50;2.30;99.90
6696;DHT22;3385;48.928;10.330;2023-01-15T13:39:42;2.40;99.90
6696;DHT22;3385;48.928;10.330;2023-01-15T13:42:23;2.30;99.90
6696;DHT22;3385;48.928;10.330;2023-01-15T13:45:06;0.50;99.90
6696;DHT22;3385;48.928;10.330;2023-01-15T13:47:49;2.40;99.90
6696;DHT22;3385;48.928;10.330;2023-01-15T13:50:28;2.40;99.90
6696;DHT22;3385;48.928;10.330;2023-01-15T13:55:39;2.50;99.90
6696;DHT22;3385;48.928;10.330;2023-01-15T13:58:22;2.30;99.90
6696;DHT22;3385;48.928;10.330;2023-01-15T14:01:44;2.50;99.90
6696;DHT22;3385;48.928;10.330;2023-01-15T14:15:04;2.60;99.90
6696;DHT22;3385;48.928;10.330;2023-01-15T14:20:30;2.70;99.90
6696;DHT22;3385;48.928;10.330;2023-01-15T14:34:16;2.50;99.90
6696;DHT22;3385;48.928;10.330;2023-01-15T14:36:49;2.50;99.90
6696;DHT22;3385;48.928;10.330;2023-01-15T14:42:11;2.70;99.90
6696;DHT22;3385;48.928;10.330;2023-01-15T14:45:04;2.70;99.90
6696;DHT22;3385;48.928;10.330;2023-01-15T14:52:50;2.90;99.90
6696;DHT22;3385;48.928;10.330;2023-01-15T14:55:18;2.80;99.90
6696;DHT22;3385;48.928;10.330;2023-01-15T14:57:59;2.60;99.90
6696;DHT22;3385;48.928;10.330;2023-01-15T15:00:34;2.80;99.90
6696;DHT22;3385;48.928;10.330;2023-01-15T15:03:02;2.80;99.90
6696;DHT22;3385;48.928;10.330;2023-01-15T15:05:30;3.10;99.90
6696;DHT22;3385;48.928;10.330;2023-01-15T15:07:58;3.00;99.90
6696;DHT22;3385;48.928;10.330;2023-01-15T15:10:25;3.20;99.90
6696;DHT22;3385;48.928;10.330;2023-01-15T15:15:47;3.20;99.90
6696;DHT22;3385;48.928;10.330;2023-01-15T15:18:22;3.00;99.90
6696;DHT22;3385;48.928;10.330;2023-01-15T15:21:12;3.00;99.90
6696;DHT22;3385;48.928;10.330;2023-01-15T15:26:41;2.70;99.90
6696;DHT22;3385;48.928;10.330;2023-01-15T15:29:15;3.10;99.90
6696;DHT22;3385;48.928;10.330;2023-01-15T15:34:36;2.80;99.90
6696;DHT22;3385;48.928;10.330;2023-01-15T15:37:14;2.90;99.90
6696;DHT22;3385;48.928;10.330;2023-01-15T15:42:23;2.80;99.90
6696;DHT22;3385;48.928;10.330;2023-01-15T15:50:55;2.50;99.90
6696;DHT22;3385;48.928;10.330;2023-01-15T15:53:21;2.40;99.90
6696;DHT22;3385;48.928;10.330;2023-01-15T15:55:47;2.50;99.90
6696;DHT22;3385;48.928;10.330;2023-01-15T15:58:30;2.50;99.90
6696;DHT22;3385;48.928;10.330;2023-01-15T16:00:57;2.30;99.90
6696;DHT22;3385;48.928;10.330;2023-01-15T16:03:25;2.40;99.90
6696;DHT22;3385;48.928;10.330;2023-01-15T16:06:05;2.20;99.90
6696;DHT22;3385;48.928;10.330;2023-01-15T16:08:34;4.50;99.90
6696;DHT22;3385;48.928;10.330;2023-01-15T16:11:09;2.40;99.90
6696;DHT22;3385;48.928;10.330;2023-01-15T16:13:50;2.30;99.90
6696;DHT22;3385;48.928;10.330;2023-01-15T16:16:18;2.40;99.90
6696;DHT22;3385;48.928;10.330;2023-01-15T16:18:46;2.40;99.90
6696;DHT22;3385;48.928;10.330;2023-01-15T16:24:02;2.20;99.90
6696;DHT22;3385;48.928;10.330;2023-01-15T16:26:53;2.50;99.90
6696;DHT22;3385;48.928;10.330;2023-01-15T16:29:28;2.60;99.90
6696;DHT22;3385;48.928;10.330;2023-01-15T16:31:55;2.70;99.90
6696;DHT22;3385;48.928;10.330;2023-01-15T16:36:51;2.80;99.90
6696;DHT22;3385;48.928;10.330;2023-01-15T16:39:23;2.80;99.90
6696;DHT22;3385;48.928;10.330;2023-01-15T16:41:53;2.90;99.90
6696;DHT22;3385;48.928;10.330;2023-01-15T16:44:41;2.80;99.90
6696;DHT22;3385;48.928;10.330;2023-01-15T16:47:21;2.70;99.90
6696;DHT22;3385;48.928;10.330;2023-01-15T16:49:48;2.90;99.90
6696;DHT22;3385;48.928;10.330;2023-01-15T16:52:46;2.70;99.90
6696;DHT22;3385;48.928;10.330;2023-01-15T16:55:48;2.70;99.90
6696;DHT22;3385;48.928;10.330;2023-01-15T16:58:21;2.50;99.90
6696;DHT22;3385;48.928;10.330;2023-01-15T17:00:55;2.50;99.90
6696;DHT22;3385;48.928;10.330;2023-01-15T17:03:23;2.40;99.90
6696;DHT22;3385;48.928;10.330;2023-01-15T17:06:01;2.60;99.90
6696;DHT22;3385;48.928;10.330;2023-01-15T17:08:37;2.40;99.90
6696;DHT22;3385;48.928;10.330;2023-01-15T17:11:46;2.20;99.90
6696;DHT22;3385;48.928;10.330;2023-01-15T17:14:24;2.10;99.90
6696;DHT22;3385;48.928;10.330;2023-01-15T17:19:43;2.30;99.90
6696;DHT22;3385;48.928;10.330;2023-01-15T17:22:35;2.10;99.90
6696;DHT22;3385;48.928;10.330;2023-01-15T17:25:18;2.20;99.90
6696;DHT22;3385;48.928;10.330;2023-01-15T17:27:45;2.20;99.90
6696;DHT22;3385;48.928;10.330;2023-01-15T17:30:14;2.20;99.90
6696;DHT22;3385;48.928;10.330;2023-01-15T17:32:40;2.00;99.90
6696;DHT22;3385;48.928;10.330;2023-01-15T17:37:43;2.10;99.90
6696;DHT22;3385;48.928;10.330;2023-01-15T17:40:10;2.00;99.90
6696;DHT22;3385;48.928;10.330;2023-01-15T17:42:36;2.10;99.90
6696;DHT22;3385;48.928;10.330;2023-01-15T17:45:01;2.30;99.90
6696;DHT22;3385;48.928;10.330;2023-01-15T17:47:27;2.40;99.90
6696;DHT22;3385;48.928;10.330;2023-01-15T17:49:53;2.10;99.90
6696;DHT22;3385;48.928;10.330;2023-01-15T17:52:19;2.30;99.90
6696;DHT22;3385;48.928;10.330;2023-01-15T17:54:45;2.50;99.90
6696;DHT22;3385;48.928;10.330;2023-01-15T17:57:29;2.40;99.90
6696;DHT22;3385;48.928;10.330;2023-01-15T18:00:13;2.10;99.90
6696;DHT22;3385;48.928;10.330;2023-01-15T18:02:58;1.90;99.90
6696;DHT22;3385;48.928;10.330;2023-01-15T18:05:45;1.70;99.90
6696;DHT22;3385;48.928;10.330;2023-01-15T18:08:13;1.80;99.90
6696;DHT22;3385;48.928;10.330;2023-01-15T18:10:39;2.20;99.90
6696;DHT22;3385;48.928;10.330;2023-01-15T18:13:05;2.00;99.90
6696;DHT22;3385;48.928;10.330;2023-01-15T18:15:33;1.60;99.90
6696;DHT22;3385;48.928;10.330;2023-01-15T18:17:58;1.70;99.90
6696;DHT22;3385;48.928;10.330;2023-01-15T18:20:24;1.70;99.90
6696;DHT22;3385;48.928;10.330;2023-01-15T18:22:50;1.70;99.90
6696;DHT22;3385;48.928;10.330;2023-01-15T18:25:16;1.70;99.90
6696;DHT22;3385;48.928;10.330;2023-01-15T18:27:41;1.40;99.90
6696;DHT22;3385;48.928;10.330;2023-01-15T18:30:17;1.20;99.90
6696;DHT22;3385;48.928;10.330;2023-01-15T18:32:43;1.20;99.90
6696;DHT22;3385;48.928;10.330;2023-01-15T18:35:10;1.20;99.90
6696;DHT22;3385;48.928;10.330;2023-01-15T18:37:36;1.40;99.90
6696;DHT22;3385;48.928;10.330;2023-01-15T18:40:02;1.60;99.90
6696;DHT22;3385;48.928;10.330;2023-01-15T18:42:28;1.70;99.90
6696;DHT22;3385;48.928;10.330;2023-01-15T18:45:12;2.00;99.90
6696;DHT22;3385;48.928;10.330;2023-01-15T18:47:59;1.50;99.90
6696;DHT22;3385;48.928;10.330;2023-01-15T18:50:27;1.70;99.90
6696;DHT22;3385;48.928;10.330;2023-01-15T18:52:53;1.80;99.90
6696;DHT22;3385;48.928;10.330;2023-01-15T18:55:21;1.70;99.90
6696;DHT22;3385;48.928;10.330;2023-01-15T18:57:54;1.80;99.90
6696;DHT22;3385;48.928;10.330;2023-01-15T19:00:21;1.70;99.90
6696;DHT22;3385;48.928;10.330;2023-01-15T19:02:47;1.90;99.90
6696;DHT22;3385;48.928;10.330;2023-01-15T19:05:14;1.80;99.90
6696;DHT22;3385;48.928;10.330;2023-01-15T19:07:42;1.80;99.90